createdAt,value
2019-01-11T00:02:08.830Z,46.50
2019-01-11T00:05:14.014Z,46.50
2019-01-11T00:08:18.955Z,46.50
2019-01-11T00:11:23.877Z,46.40
2019-01-11T00:14:28.844Z,46.00
2019-01-11T00:17:34.053Z,46.20
2019-01-11T00:20:39.081Z,45.70
2019-01-11T00:23:44.106Z,46.00
2019-01-11T00:26:49.069Z,46.10
2019-01-11T00:29:54.203Z,46.30
2019-01-11T00:32:59.335Z,45.90
2019-01-11T00:36:05.677Z,45.60
2019-01-11T00:39:10.896Z,45.80
2019-01-11T00:42:15.806Z,45.60
2019-01-11T00:45:20.755Z,45.10
2019-01-11T00:48:25.923Z,44.90
2019-01-11T00:51:30.758Z,45.00
2019-01-11T00:54:35.701Z,44.90
2019-01-11T00:57:40.838Z,44.80
2019-01-11T01:00:46.013Z,44.90
2019-01-11T01:03:51.984Z,44.70
2019-01-11T01:06:56.913Z,45.10
2019-01-11T01:10:01.880Z,45.10
2019-01-11T01:13:07.153Z,45.10
2019-01-11T01:16:12.119Z,44.90
2019-01-11T01:19:20.074Z,45.00
2019-01-11T01:22:23.950Z,45.10
2019-01-11T01:25:29.295Z,45.10
2019-01-11T01:28:34.282Z,44.70
2019-01-11T01:31:39.284Z,44.80
2019-01-11T01:34:44.488Z,44.80
2019-01-11T01:37:49.180Z,45.00
2019-01-11T01:40:54.121Z,44.90
2019-01-11T01:43:59.641Z,45.10
2019-01-11T01:47:05.269Z,44.70
2019-01-11T01:50:10.755Z,45.30
2019-01-11T01:53:15.872Z,45.00
2019-01-11T01:56:20.941Z,45.00
2019-01-11T01:59:25.885Z,45.50
2019-01-11T02:02:31.006Z,45.60
2019-01-11T02:05:35.988Z,42.60
2019-01-11T02:08:40.825Z,42.20
2019-01-11T02:11:46.237Z,41.00
2019-01-11T02:14:51.154Z,41.60
2019-01-11T02:17:56.130Z,41.20
2019-01-11T02:21:01.073Z,41.50
2019-01-11T02:24:06.196Z,41.00
2019-01-11T02:27:11.177Z,40.90
2019-01-11T02:30:24.132Z,41.50
2019-01-11T02:33:29.128Z,40.80
2019-01-11T02:36:34.088Z,40.50
2019-01-11T02:39:39.174Z,39.90
2019-01-11T02:42:44.421Z,40.30
2019-01-11T02:45:49.529Z,40.70
2019-01-11T02:48:54.448Z,39.90
2019-01-11T02:51:59.309Z,40.20
2019-01-11T02:55:04.812Z,40.30
2019-01-11T02:58:09.813Z,40.20
2019-01-11T03:01:14.711Z,39.90
2019-01-11T03:04:20.006Z,40.10
2019-01-11T03:07:25.146Z,40.50
2019-01-11T03:10:30.053Z,40.30
2019-01-11T03:13:34.925Z,40.60
2019-01-11T03:16:39.920Z,40.10
2019-01-11T03:19:47.926Z,40.40
2019-01-11T03:22:51.656Z,40.50
2019-01-11T03:25:56.627Z,40.50
2019-01-11T03:29:01.535Z,40.90
2019-01-11T03:32:06.394Z,41.00
2019-01-11T03:35:22.100Z,41.50
2019-01-11T03:38:27.217Z,41.60
2019-01-11T03:41:32.331Z,41.80
2019-01-11T03:44:37.321Z,42.30
2019-01-11T03:47:42.445Z,43.50
2019-01-11T03:50:47.516Z,43.30
2019-01-11T03:53:52.407Z,43.60
2019-01-11T03:56:57.604Z,42.90
2019-01-11T04:00:02.575Z,42.40
2019-01-11T04:03:07.538Z,43.30
2019-01-11T04:06:12.637Z,44.10
2019-01-11T04:09:17.657Z,44.10
2019-01-11T04:12:22.956Z,43.90
2019-01-11T04:15:27.893Z,43.40
2019-01-11T04:18:33.821Z,43.50
2019-01-11T04:21:39.703Z,43.10
2019-01-11T04:25:02.364Z,42.90
2019-01-11T04:28:07.270Z,42.70
2019-01-11T04:31:12.347Z,42.40
2019-01-11T04:34:17.489Z,42.60
2019-01-11T04:37:22.421Z,42.90
2019-01-11T04:40:33.974Z,43.60
2019-01-11T04:43:34.125Z,43.30
2019-01-11T04:46:39.106Z,41.00
2019-01-11T04:49:44.416Z,42.20
2019-01-11T04:52:49.492Z,42.40
2019-01-11T04:55:54.629Z,42.30
2019-01-11T04:58:59.511Z,41.80
2019-01-11T05:02:04.777Z,41.60
2019-01-11T05:05:09.908Z,42.30
2019-01-11T05:08:14.883Z,42.20
2019-01-11T05:11:19.790Z,42.10
2019-01-11T05:14:24.752Z,42.10
2019-01-11T05:17:29.657Z,40.90
2019-01-11T05:20:34.709Z,40.90
2019-01-11T05:23:40.229Z,40.90
2019-01-11T05:26:45.418Z,40.80
2019-01-11T05:29:50.253Z,40.80
2019-01-11T05:32:55.215Z,40.50
2019-01-11T05:36:00.080Z,40.80
2019-01-11T05:39:07.829Z,40.80
2019-01-11T05:42:12.738Z,40.80
2019-01-11T05:45:18.179Z,40.80
2019-01-11T05:48:23.210Z,40.80
2019-01-11T05:51:28.103Z,40.60
2019-01-11T05:54:32.995Z,40.80
2019-01-11T05:57:39.653Z,40.70
2019-01-11T06:00:44.560Z,40.70
2019-01-11T06:03:49.669Z,41.30
2019-01-11T06:07:10.002Z,41.90
2019-01-11T06:10:16.269Z,42.10
2019-01-11T06:13:21.440Z,42.40
2019-01-11T06:16:26.386Z,42.30
2019-01-11T06:19:31.447Z,42.90
2019-01-11T06:22:36.569Z,42.20
2019-01-11T06:25:41.724Z,42.90
2019-01-11T06:28:46.799Z,43.60
2019-01-11T06:31:52.077Z,45.60
2019-01-11T06:34:57.021Z,44.60
2019-01-11T06:38:01.986Z,44.90
2019-01-11T06:41:07.195Z,44.50
2019-01-11T06:44:12.549Z,44.40
2019-01-11T06:47:18.540Z,44.90
2019-01-11T06:50:23.670Z,45.40
2019-01-11T06:53:28.634Z,46.30
2019-01-11T06:56:33.805Z,46.10
2019-01-11T06:59:39.059Z,46.20
2019-01-11T07:02:44.141Z,46.30
2019-01-11T07:05:49.345Z,46.00
2019-01-11T07:08:54.418Z,45.70
2019-01-11T07:11:59.641Z,45.80
2019-01-11T07:15:05.049Z,46.20
2019-01-11T07:18:10.125Z,46.70
2019-01-11T07:21:15.037Z,46.90
2019-01-11T07:24:19.936Z,47.00
2019-01-11T07:27:25.778Z,46.80
2019-01-11T07:31:05.327Z,47.00
2019-01-11T07:34:10.181Z,47.30
2019-01-11T07:37:15.184Z,47.70
2019-01-11T07:40:20.337Z,47.60
2019-01-11T07:43:25.406Z,47.40
2019-01-11T07:46:30.329Z,46.90
2019-01-11T07:49:35.621Z,46.10
2019-01-11T07:52:40.796Z,46.60
2019-01-11T07:55:45.779Z,47.10
2019-01-11T07:58:50.686Z,47.80
2019-01-11T08:01:55.734Z,48.50
2019-01-11T08:05:01.249Z,49.10
2019-01-11T08:08:06.168Z,50.70
2019-01-11T08:11:11.018Z,51.10
2019-01-11T08:14:15.913Z,52.30
2019-01-11T08:17:22.185Z,53.40
2019-01-11T08:20:27.104Z,53.70
2019-01-11T08:23:32.016Z,54.70
2019-01-11T08:26:37.085Z,55.40
2019-01-11T08:29:42.238Z,56.40
2019-01-11T08:32:47.342Z,57.70
2019-01-11T08:35:52.452Z,58.40
2019-01-11T08:38:57.464Z,59.50
2019-01-11T08:42:02.464Z,60.20
2019-01-11T08:45:11.830Z,59.30
2019-01-11T08:48:16.818Z,58.80
2019-01-11T08:51:22.102Z,58.30
2019-01-11T08:54:27.052Z,58.20
2019-01-11T08:57:32.061Z,58.60
2019-01-11T09:00:37.022Z,59.10
2019-01-11T09:03:42.147Z,59.00
2019-01-11T09:06:47.361Z,58.90
2019-01-11T09:09:52.624Z,59.20
2019-01-11T09:12:57.593Z,58.70
2019-01-11T09:16:04.301Z,59.60
2019-01-11T09:19:10.286Z,59.10
2019-01-11T09:22:15.290Z,58.90
2019-01-11T09:25:20.292Z,58.20
2019-01-11T09:28:25.438Z,58.50
2019-01-11T09:31:30.598Z,58.80
2019-01-11T09:34:35.454Z,57.90
2019-01-11T09:37:40.539Z,57.80
2019-01-11T09:40:47.575Z,57.70
2019-01-11T09:43:52.745Z,57.50
2019-01-11T09:46:57.722Z,57.20
2019-01-11T09:50:02.692Z,56.40
2019-01-11T09:53:07.879Z,55.90
2019-01-11T09:56:12.941Z,55.40
2019-01-11T09:59:18.720Z,55.30
2019-01-11T10:02:51.777Z,55.80
2019-01-11T10:05:56.818Z,55.10
2019-01-11T10:09:03.970Z,54.80
2019-01-11T10:12:08.955Z,53.50
2019-01-11T10:15:14.771Z,52.50
2019-01-11T10:18:19.836Z,52.00
2019-01-11T10:21:24.968Z,52.30
2019-01-11T10:24:29.984Z,52.40
2019-01-11T10:27:35.252Z,51.90
2019-01-11T10:30:40.159Z,51.00
2019-01-11T10:33:45.178Z,50.10
2019-01-11T10:36:50.236Z,49.80
2019-01-11T10:39:55.361Z,48.50
2019-01-11T10:43:00.973Z,48.40
2019-01-11T10:46:17.763Z,47.30
2019-01-11T10:49:22.719Z,47.30
2019-01-11T10:52:27.649Z,45.30
2019-01-11T10:55:32.591Z,45.20
2019-01-11T10:58:37.625Z,44.10
2019-01-11T11:01:42.576Z,44.30
2019-01-11T11:04:47.532Z,45.50
2019-01-11T11:07:52.671Z,45.00
2019-01-11T11:10:57.669Z,43.90
2019-01-11T11:14:02.668Z,42.40
2019-01-11T11:17:08.025Z,42.10
2019-01-11T11:20:14.685Z,41.80
2019-01-11T11:23:19.901Z,38.40
2019-01-11T11:26:24.847Z,30.30
2019-01-11T11:29:29.932Z,26.00
2019-01-11T11:32:48.374Z,23.20
2019-01-11T11:35:53.258Z,22.60
2019-01-11T11:38:58.470Z,24.50
2019-01-11T11:42:03.602Z,25.50
2019-01-11T11:45:08.960Z,24.80
2019-01-11T11:48:13.850Z,21.40
2019-01-11T11:51:18.818Z,18.80
2019-01-11T11:54:23.897Z,15.60
2019-01-11T11:57:29.048Z,14.60
2019-01-11T12:00:34.104Z,14.40
2019-01-11T12:03:39.036Z,13.60
2019-01-11T12:06:44.236Z,11.40
2019-01-11T12:09:49.351Z,10.80
2019-01-11T12:12:54.419Z,9.70
2019-01-11T12:15:59.441Z,9.80
2019-01-11T12:19:04.537Z,9.40
2019-01-11T12:22:09.384Z,9.20
2019-01-11T12:25:14.312Z,9.10
2019-01-11T12:28:38.168Z,9.30
2019-01-11T12:31:45.243Z,9.40
2019-01-11T12:34:50.412Z,9.40
2019-01-11T12:37:55.363Z,9.00
2019-01-11T12:41:00.513Z,8.70
2019-01-11T12:44:05.692Z,9.00
2019-01-11T12:47:10.533Z,9.10
2019-01-11T12:50:21.234Z,9.20
2019-01-11T12:53:26.092Z,9.20
2019-01-11T12:56:31.206Z,9.50
2019-01-11T12:59:36.199Z,9.60
2019-01-11T13:02:41.428Z,10.10
2019-01-11T13:05:46.619Z,10.50
2019-01-11T13:08:51.596Z,10.00
2019-01-11T13:11:56.709Z,10.20
2019-01-11T13:15:01.541Z,10.30
2019-01-11T13:18:06.406Z,10.30
2019-01-11T13:21:11.210Z,10.70
2019-01-11T13:24:16.257Z,10.90
2019-01-11T13:27:21.189Z,10.80
2019-01-11T13:30:26.157Z,11.00
2019-01-11T13:33:30.906Z,10.70
2019-01-11T13:36:35.719Z,10.50
2019-01-11T13:39:40.571Z,10.40
2019-01-11T13:42:46.049Z,10.80
2019-01-11T13:45:51.121Z,10.90
2019-01-11T13:48:55.859Z,11.60
2019-01-11T13:52:06.991Z,11.70
2019-01-11T13:55:06.992Z,11.80
2019-01-11T13:58:11.732Z,12.10
2019-01-11T14:01:16.465Z,12.10
2019-01-11T14:04:21.213Z,12.40
2019-01-11T14:07:25.945Z,12.60
2019-01-11T14:10:31.069Z,13.00
2019-01-11T14:13:36.621Z,13.20
2019-01-11T14:16:41.319Z,13.40
2019-01-11T14:19:46.075Z,13.40
2019-01-11T14:22:50.750Z,14.10
2019-01-11T14:25:55.945Z,14.10
2019-01-11T14:29:01.355Z,14.70
2019-01-11T14:32:06.225Z,15.20
2019-01-11T14:35:11.423Z,15.90
2019-01-11T14:38:16.427Z,17.10
2019-01-11T14:41:21.617Z,18.00
2019-01-11T14:44:26.769Z,19.30
2019-01-11T14:47:31.819Z,20.40
2019-01-11T14:50:37.171Z,22.20
2019-01-11T14:53:42.200Z,23.30
2019-01-11T14:56:47.117Z,24.20
2019-01-11T14:59:52.086Z,24.60
2019-01-11T15:02:57.067Z,25.60
2019-01-11T15:06:01.856Z,26.20
2019-01-11T15:09:09.049Z,27.30
2019-01-11T15:12:13.920Z,27.20
2019-01-11T15:15:19.374Z,28.00
2019-01-11T15:18:24.630Z,28.00
2019-01-11T15:21:29.630Z,28.40
2019-01-11T15:24:34.719Z,28.70
2019-01-11T15:27:39.786Z,29.10
2019-01-11T15:30:45.531Z,29.60
2019-01-11T15:33:50.718Z,29.70
2019-01-11T15:36:55.703Z,29.90
2019-01-11T15:40:00.560Z,30.00
2019-01-11T15:43:05.736Z,30.00
2019-01-11T15:46:15.080Z,30.10
2019-01-11T15:49:17.012Z,30.30
2019-01-11T15:52:22.081Z,30.60
2019-01-11T15:55:27.052Z,30.70
2019-01-11T15:58:32.012Z,31.10
2019-01-11T16:01:36.736Z,31.60
2019-01-11T16:04:42.002Z,31.50
2019-01-11T16:07:48.375Z,31.70
2019-01-11T16:11:20.656Z,32.40
2019-01-11T16:14:34.808Z,32.40
2019-01-11T16:17:39.940Z,32.30
2019-01-11T16:20:44.853Z,32.60
2019-01-11T16:23:49.792Z,32.60
2019-01-11T16:26:55.213Z,33.00
2019-01-11T16:30:00.343Z,33.00
2019-01-11T16:33:05.542Z,32.90
2019-01-11T16:36:10.577Z,32.90
2019-01-11T16:39:15.731Z,33.40
2019-01-11T16:42:20.741Z,33.30
2019-01-11T16:45:25.832Z,33.80
2019-01-11T16:48:31.049Z,33.70
2019-01-11T16:51:36.276Z,33.70
2019-01-11T16:54:41.156Z,33.90
2019-01-11T16:57:46.139Z,33.70
2019-01-11T17:00:51.014Z,33.70
2019-01-11T17:03:55.937Z,33.70
2019-01-11T17:07:00.898Z,33.80
2019-01-11T17:10:06.448Z,34.00
2019-01-11T17:13:11.692Z,34.50
2019-01-11T17:16:16.985Z,34.70
2019-01-11T17:19:21.933Z,34.10
2019-01-11T17:22:26.882Z,34.20
2019-01-11T17:25:34.669Z,34.20
2019-01-11T17:28:45.074Z,34.20
2019-01-11T17:31:50.292Z,34.70
2019-01-11T17:34:55.700Z,35.00
2019-01-11T17:38:00.888Z,35.20
2019-01-11T17:41:06.301Z,35.70
2019-01-11T17:44:12.280Z,35.80
2019-01-11T17:47:17.166Z,36.00
2019-01-11T17:50:21.909Z,36.00
2019-01-11T17:53:27.352Z,36.10
2019-01-11T17:56:33.500Z,36.50
2019-01-11T17:59:38.309Z,37.40
2019-01-11T18:02:43.045Z,38.00
2019-01-11T18:05:47.961Z,38.20
2019-01-11T18:08:52.733Z,38.20
2019-01-11T18:12:00.088Z,38.50
2019-01-11T18:15:06.281Z,38.80
2019-01-11T18:18:11.338Z,39.90
2019-01-11T18:21:19.021Z,39.20
2019-01-11T18:24:24.086Z,39.40
2019-01-11T18:27:29.149Z,39.70
2019-01-11T18:30:33.935Z,39.80
2019-01-11T18:33:38.726Z,39.80
2019-01-11T18:36:43.702Z,40.00
2019-01-11T18:39:48.538Z,40.20
2019-01-11T18:42:53.390Z,40.30
2019-01-11T18:45:58.177Z,40.30
2019-01-11T18:49:04.288Z,40.40
2019-01-11T18:52:10.629Z,40.60
2019-01-11T18:55:15.486Z,40.90
2019-01-11T18:58:20.713Z,40.90
2019-01-11T19:01:25.719Z,40.90
2019-01-11T19:04:31.133Z,40.90
2019-01-11T19:07:36.422Z,41.10
2019-01-11T19:10:41.479Z,41.40
2019-01-11T19:13:46.625Z,41.50
2019-01-11T19:16:51.610Z,41.40
2019-01-11T19:19:56.409Z,41.50
2019-01-11T19:23:02.382Z,41.80
2019-01-11T19:26:07.069Z,42.10
2019-01-11T19:29:12.212Z,42.40
2019-01-11T19:32:17.190Z,42.50
2019-01-11T19:35:22.472Z,42.80
2019-01-11T19:38:27.487Z,42.70
2019-01-11T19:41:32.452Z,42.50
2019-01-11T19:44:37.375Z,42.70
2019-01-11T19:47:42.486Z,42.80
2019-01-11T19:50:47.435Z,42.20
2019-01-11T19:53:52.594Z,42.20
2019-01-11T19:57:02.492Z,42.30
2019-01-11T20:00:11.696Z,42.40
2019-01-11T20:03:16.938Z,42.70
2019-01-11T20:06:22.182Z,42.60
2019-01-11T20:09:27.149Z,42.70
2019-01-11T20:12:32.444Z,42.60
2019-01-11T20:15:37.936Z,42.50
2019-01-11T20:18:43.361Z,42.70
2019-01-11T20:21:48.521Z,42.80
2019-01-11T20:24:55.869Z,42.80
2019-01-11T20:28:01.514Z,42.20
2019-01-11T20:31:06.608Z,42.10
2019-01-11T20:34:11.596Z,42.40
2019-01-11T20:37:25.605Z,42.60
2019-01-11T20:40:30.920Z,42.70
2019-01-11T20:43:37.507Z,43.00
2019-01-11T20:46:42.789Z,43.00
2019-01-11T20:49:48.131Z,43.10
2019-01-11T20:52:53.249Z,43.30
2019-01-11T20:55:58.260Z,43.20
2019-01-11T20:59:03.655Z,43.60
2019-01-11T21:02:08.794Z,43.20
2019-01-11T21:05:14.405Z,43.60
2019-01-11T21:08:19.332Z,43.60
2019-01-11T21:11:24.428Z,43.50
2019-01-11T21:14:30.447Z,43.40
2019-01-11T21:17:35.646Z,43.30
2019-01-11T21:20:40.597Z,43.10
2019-01-11T21:23:48.889Z,43.30
2019-01-11T21:26:52.528Z,43.10
2019-01-11T21:29:57.745Z,43.00
2019-01-11T21:33:02.816Z,42.80
2019-01-11T21:36:07.906Z,43.00
2019-01-11T21:39:13.125Z,43.40
2019-01-11T21:42:19.192Z,43.70
2019-01-11T21:45:24.869Z,43.60
2019-01-11T21:48:30.090Z,43.40
2019-01-11T21:51:35.281Z,43.10
2019-01-11T21:54:40.789Z,43.10
2019-01-11T21:57:49.439Z,43.30
2019-01-11T22:00:55.625Z,43.30
2019-01-11T22:04:01.082Z,43.30
2019-01-11T22:07:06.413Z,42.70
2019-01-11T22:10:13.806Z,42.90
2019-01-11T22:13:18.971Z,43.10
2019-01-11T22:16:24.268Z,43.40
2019-01-11T22:19:29.577Z,43.30
2019-01-11T22:22:34.745Z,42.90
2019-01-11T22:25:41.008Z,42.90
2019-01-11T22:28:46.583Z,42.90
2019-01-11T22:31:51.809Z,42.80
2019-01-11T22:34:56.866Z,42.50
2019-01-11T22:38:02.172Z,42.70
2019-01-11T22:41:07.413Z,42.80
2019-01-11T22:44:12.613Z,43.10
2019-01-11T22:47:17.886Z,43.60
2019-01-11T22:50:22.722Z,43.90
2019-01-11T22:53:27.717Z,44.00
2019-01-11T22:56:32.767Z,44.10
2019-01-11T22:59:38.076Z,44.50
2019-01-11T23:02:48.083Z,44.70
2019-01-11T23:05:55.965Z,45.00
2019-01-11T23:09:00.736Z,45.30
2019-01-11T23:12:24.885Z,45.30
2019-01-11T23:15:36.687Z,45.40
2019-01-11T23:18:41.678Z,45.90
2019-01-11T23:21:46.812Z,46.10
2019-01-11T23:24:51.672Z,45.80
2019-01-11T23:27:56.915Z,46.20
2019-01-11T23:31:02.218Z,46.20
2019-01-11T23:34:07.116Z,46.50
2019-01-11T23:37:12.630Z,46.50
2019-01-11T23:40:18.018Z,46.50
2019-01-11T23:43:23.150Z,46.30
2019-01-11T23:46:28.208Z,46.50
2019-01-11T23:49:33.291Z,46.20
2019-01-11T23:52:38.360Z,46.10
2019-01-11T23:55:43.541Z,46.10
2019-01-11T23:58:48.429Z,46.50
